Terminal Aerodrome Forecast
Issued by NWS

Home | Current Version | Previous Version | Text Only | Print | Product List | Glossary On
Versions: 1 2 3 4 5 6 7 8 9 10 11 12 13 14
000
FTUS42 TJSJ 020529
TAFIST
TAF
TIST 020529Z 0206/0306 10008KT P6SM VCSH FEW023 SCT070 BKN090
     FM021300 12012KT P6SM VCSH FEW024 SCT080
     FM022200 09008KT P6SM VCSH FEW025 SCT080
      AMD NOT SKED=

USA.gov is the U.S. government's official web portal to all federal, state and local government web resources and services.